GEC8349 LTFM-EDDM
Flight info
| Callsign | GEC8349 |
|---|---|
| Flight time | 2h 5m |
| Altitude | 38000 |
| Route | VADEN DCT BAKLO DCT XANEX DCT BESLI DCT UTEKA DCT BABIT DCT GOTAR DCT AMADI Q113 NAPSA NAPSA1B |
| Aircraft | B77L/H-SDE1E2E3FGHIJ2J3J4J5M1RWXY/LB1D1 |
Departure
| Time | 2026-05-05 09:00 |
|---|---|
| Airport | İstanbul Airport (LTFM) |
Arrival
| Time | 2026-05-05 11:05 |
|---|---|
| Airport | Munich Airport (EDDM) |
| Time | Latitude | Longitude | Altitude | Speed | Heading |
|---|---|---|---|---|---|
| 2026-05-05 08:07 | 41.27764 | 28.71346 | 335 ft | 0 kts | 89° |
| 2026-05-05 08:49 | 41.27764 | 28.71323 | 333 ft | 4 kts | 89° |
| 2026-05-05 08:49 | 41.27763 | 28.71287 | 338 ft | 4 kts | 89° |
| 2026-05-05 08:49 | 41.27763 | 28.71251 | 338 ft | 4 kts | 89° |
| 2026-05-05 08:49 | 41.27762 | 28.71223 | 335 ft | 4 kts | 93° |
| 2026-05-05 08:50 | 41.27768 | 28.71193 | 338 ft | 4 kts | 146° |
| 2026-05-05 08:50 | 41.27790 | 28.71187 | 338 ft | 4 kts | 179° |
| 2026-05-05 08:50 | 41.27808 | 28.71186 | 338 ft | 1 kts | 179° |
| 2026-05-05 08:53 | 41.27807 | 28.71186 | 338 ft | 1 kts | 179° |
| 2026-05-05 08:53 | 41.27776 | 28.71187 | 335 ft | 9 kts | 179° |
| 2026-05-05 08:54 | 41.27711 | 28.71188 | 338 ft | 9 kts | 179° |
| 2026-05-05 08:54 | 41.27645 | 28.71190 | 334 ft | 10 kts | 179° |
| 2026-05-05 08:54 | 41.27576 | 28.71191 | 334 ft | 10 kts | 179° |
| 2026-05-05 08:54 | 41.27505 | 28.71193 | 333 ft | 10 kts | 179° |
| 2026-05-05 08:55 | 41.27432 | 28.71195 | 333 ft | 11 kts | 178° |
| 2026-05-05 08:55 | 41.27330 | 28.71198 | 334 ft | 21 kts | 179° |
| 2026-05-05 08:55 | 41.27183 | 28.71201 | 334 ft | 21 kts | 179° |
| 2026-05-05 08:55 | 41.27034 | 28.71205 | 335 ft | 21 kts | 179° |
| 2026-05-05 08:56 | 41.26883 | 28.71209 | 334 ft | 21 kts | 179° |
| 2026-05-05 08:56 | 41.26734 | 28.71211 | 336 ft | 21 kts | 179° |
| 2026-05-05 08:56 | 41.26585 | 28.71215 | 335 ft | 21 kts | 179° |
| 2026-05-05 08:56 | 41.26510 | 28.71247 | 334 ft | 10 kts | 118° |
| 2026-05-05 08:57 | 41.26509 | 28.71358 | 336 ft | 17 kts | 88° |
| 2026-05-05 08:57 | 41.26512 | 28.71580 | 334 ft | 27 kts | 89° |
| 2026-05-05 08:57 | 41.26515 | 28.71785 | 334 ft | 20 kts | 89° |
| 2026-05-05 08:57 | 41.26517 | 28.71948 | 335 ft | 16 kts | 89° |
| 2026-05-05 08:58 | 41.26519 | 28.72102 | 338 ft | 16 kts | 89° |
| 2026-05-05 08:58 | 41.26522 | 28.72253 | 338 ft | 16 kts | 84° |
| 2026-05-05 08:58 | 41.26556 | 28.72396 | 334 ft | 16 kts | 69° |
| 2026-05-05 08:58 | 41.26592 | 28.72506 | 337 ft | 10 kts | 48° |
| 2026-05-05 08:59 | 41.26655 | 28.72516 | 338 ft | 3 kts | 359° |
| 2026-05-05 08:59 | 41.26659 | 28.72516 | 338 ft | 0 kts | 359° |
| 2026-05-05 08:59 | 41.26671 | 28.72515 | 335 ft | 15 kts | 359° |
| 2026-05-05 09:00 | 41.27117 | 28.72506 | 335 ft | 112 kts | 359° |
| 2026-05-05 09:00 | 41.28168 | 28.72480 | 460 ft | 178 kts | 359° |
| 2026-05-05 09:00 | 41.29362 | 28.72482 | 1650 ft | 162 kts | 0° |
| 2026-05-05 09:00 | 41.30532 | 28.72487 | 2490 ft | 176 kts | 360° |
| 2026-05-05 09:01 | 41.31873 | 28.72490 | 2832 ft | 208 kts | 1° |
| 2026-05-05 09:01 | 41.33420 | 28.72504 | 3189 ft | 236 kts | 0° |
| 2026-05-05 09:01 | 41.35046 | 28.72049 | 3824 ft | 248 kts | 329° |
| 2026-05-05 09:01 | 41.36248 | 28.70373 | 4587 ft | 258 kts | 303° |
| 2026-05-05 09:02 | 41.37201 | 28.68302 | 5403 ft | 265 kts | 303° |
| 2026-05-05 09:02 | 41.38162 | 28.66210 | 6428 ft | 267 kts | 303° |
| 2026-05-05 09:02 | 41.39140 | 28.64100 | 7404 ft | 270 kts | 303° |
| 2026-05-05 09:02 | 41.40142 | 28.61957 | 8311 ft | 275 kts | 303° |
| 2026-05-05 09:03 | 41.41169 | 28.59778 | 9232 ft | 280 kts | 304° |
| 2026-05-05 09:03 | 41.42213 | 28.57577 | 10177 ft | 283 kts | 304° |
| 2026-05-05 09:03 | 41.43292 | 28.55310 | 10821 ft | 300 kts | 304° |
| 2026-05-05 09:03 | 41.44472 | 28.52850 | 11055 ft | 330 kts | 304° |
| 2026-05-05 09:04 | 41.45763 | 28.50165 | 11429 ft | 354 kts | 304° |
| 2026-05-05 09:04 | 41.47110 | 28.47364 | 12224 ft | 364 kts | 304° |
| 2026-05-05 09:04 | 41.48487 | 28.44504 | 13171 ft | 370 kts | 304° |
| 2026-05-05 09:04 | 41.49890 | 28.41602 | 14166 ft | 374 kts | 304° |
| 2026-05-05 09:05 | 41.51303 | 28.38667 | 15125 ft | 378 kts | 304° |
| 2026-05-05 09:05 | 41.52726 | 28.35702 | 16051 ft | 382 kts | 304° |
| 2026-05-05 09:05 | 41.54167 | 28.32698 | 16911 ft | 387 kts | 304° |
| 2026-05-05 09:05 | 41.55631 | 28.29648 | 17752 ft | 392 kts | 304° |
| 2026-05-05 09:06 | 41.57106 | 28.26575 | 18584 ft | 397 kts | 304° |
| 2026-05-05 09:06 | 41.58603 | 28.23455 | 19400 ft | 401 kts | 304° |
| 2026-05-05 09:06 | 41.60115 | 28.20300 | 20179 ft | 405 kts | 303° |
| 2026-05-05 09:06 | 41.61640 | 28.17109 | 20937 ft | 410 kts | 303° |
| 2026-05-05 09:07 | 41.63182 | 28.13883 | 21660 ft | 415 kts | 303° |
| 2026-05-05 09:07 | 41.64743 | 28.10613 | 22371 ft | 419 kts | 303° |
| 2026-05-05 09:07 | 41.66307 | 28.07335 | 23062 ft | 424 kts | 303° |
| 2026-05-05 09:08 | 41.67390 | 28.05065 | 23512 ft | 426 kts | 303° |
| 2026-05-05 09:08 | 41.68986 | 28.01712 | 24183 ft | 431 kts | 303° |
| 2026-05-05 09:08 | 41.70611 | 27.98296 | 24831 ft | 435 kts | 303° |
| 2026-05-05 09:09 | 41.72238 | 27.94872 | 25505 ft | 438 kts | 303° |
| 2026-05-05 09:09 | 41.73878 | 27.91416 | 26155 ft | 441 kts | 303° |
| 2026-05-05 09:09 | 41.75506 | 27.87981 | 26751 ft | 445 kts | 303° |
| 2026-05-05 09:09 | 41.77192 | 27.84417 | 27340 ft | 448 kts | 303° |
| 2026-05-05 09:10 | 41.78864 | 27.80882 | 27912 ft | 452 kts | 303° |
| 2026-05-05 09:10 | 41.80530 | 27.77352 | 28456 ft | 455 kts | 303° |
| 2026-05-05 09:10 | 41.82224 | 27.73760 | 29008 ft | 458 kts | 303° |
| 2026-05-05 09:10 | 41.83930 | 27.70140 | 29526 ft | 460 kts | 303° |
| 2026-05-05 09:11 | 41.85644 | 27.66493 | 30019 ft | 464 kts | 303° |
| 2026-05-05 09:11 | 41.87370 | 27.62824 | 30488 ft | 466 kts | 303° |
| 2026-05-05 09:11 | 41.89103 | 27.59135 | 30939 ft | 468 kts | 303° |
| 2026-05-05 09:11 | 41.90839 | 27.55433 | 31471 ft | 468 kts | 303° |
| 2026-05-05 09:12 | 41.92565 | 27.51745 | 32046 ft | 467 kts | 303° |
| 2026-05-05 09:12 | 41.94289 | 27.48056 | 32612 ft | 465 kts | 303° |
| 2026-05-05 09:12 | 41.96005 | 27.44383 | 33122 ft | 464 kts | 303° |
| 2026-05-05 09:12 | 41.97718 | 27.40710 | 33581 ft | 464 kts | 302° |
| 2026-05-05 09:13 | 41.99428 | 27.37036 | 34049 ft | 463 kts | 302° |
| 2026-05-05 09:13 | 42.01138 | 27.33366 | 34522 ft | 462 kts | 303° |
| 2026-05-05 09:13 | 42.02841 | 27.29706 | 34913 ft | 463 kts | 302° |
| 2026-05-05 09:13 | 42.04553 | 27.26022 | 35239 ft | 465 kts | 302° |
| 2026-05-05 09:14 | 42.06303 | 27.22363 | 35635 ft | 464 kts | 306° |
| 2026-05-05 09:14 | 42.08264 | 27.18934 | 36023 ft | 463 kts | 311° |
| 2026-05-05 09:14 | 42.10416 | 27.15686 | 36066 ft | 469 kts | 313° |
| 2026-05-05 09:15 | 42.14806 | 27.09197 | 36073 ft | 465 kts | 313° |
| 2026-05-05 09:15 | 42.19119 | 27.02767 | 36069 ft | 461 kts | 312° |
| 2026-05-05 09:16 | 42.23396 | 26.96321 | 36073 ft | 461 kts | 312° |
| 2026-05-05 09:16 | 42.27661 | 26.89863 | 36075 ft | 461 kts | 312° |
| 2026-05-05 09:17 | 42.31930 | 26.83381 | 36077 ft | 463 kts | 312° |
| 2026-05-05 09:17 | 42.36212 | 26.76870 | 36073 ft | 464 kts | 312° |
| 2026-05-05 09:18 | 42.40498 | 26.70339 | 36073 ft | 465 kts | 312° |
| 2026-05-05 09:18 | 42.44785 | 26.63790 | 36072 ft | 465 kts | 312° |
| 2026-05-05 09:19 | 42.49070 | 26.57230 | 36072 ft | 465 kts | 312° |
| 2026-05-05 09:19 | 42.53304 | 26.50603 | 36071 ft | 466 kts | 308° |
| 2026-05-05 09:20 | 42.56784 | 26.43201 | 36075 ft | 466 kts | 299° |
| 2026-05-05 09:20 | 42.59809 | 26.35419 | 36074 ft | 466 kts | 298° |
| 2026-05-05 09:21 | 42.62833 | 26.27633 | 36071 ft | 466 kts | 299° |
| 2026-05-05 09:21 | 42.65871 | 26.19870 | 36073 ft | 465 kts | 299° |
| 2026-05-05 09:22 | 42.68907 | 26.12121 | 36070 ft | 465 kts | 299° |
| 2026-05-05 09:22 | 42.71923 | 26.04411 | 36074 ft | 464 kts | 299° |
| 2026-05-05 09:23 | 42.74457 | 25.97915 | 36073 ft | 464 kts | 299° |
| 2026-05-05 09:23 | 42.77474 | 25.90157 | 36075 ft | 464 kts | 299° |
| 2026-05-05 09:24 | 42.80484 | 25.82391 | 36078 ft | 463 kts | 299° |
| 2026-05-05 09:24 | 42.83488 | 25.74636 | 36078 ft | 464 kts | 299° |
| 2026-05-05 09:25 | 42.86495 | 25.66846 | 36073 ft | 464 kts | 298° |
| 2026-05-05 09:25 | 42.89488 | 25.59061 | 36076 ft | 464 kts | 298° |
| 2026-05-05 09:26 | 42.92483 | 25.51256 | 36076 ft | 464 kts | 298° |
| 2026-05-05 09:26 | 42.95470 | 25.43452 | 36075 ft | 464 kts | 298° |
| 2026-05-05 09:27 | 42.98453 | 25.35637 | 36074 ft | 464 kts | 298° |
| 2026-05-05 09:27 | 43.01432 | 25.27814 | 36073 ft | 464 kts | 298° |
| 2026-05-05 09:28 | 43.01702 | 25.27106 | 36069 ft | 464 kts | 298° |
| 2026-05-05 09:28 | 43.04068 | 25.20868 | 36075 ft | 464 kts | 298° |
| 2026-05-05 09:29 | 43.07012 | 25.13085 | 36074 ft | 464 kts | 298° |
| 2026-05-05 09:29 | 43.09990 | 25.05200 | 36069 ft | 463 kts | 298° |
| 2026-05-05 09:30 | 43.12892 | 24.97388 | 36075 ft | 463 kts | 296° |
| 2026-05-05 09:30 | 43.15354 | 24.89245 | 36085 ft | 463 kts | 293° |
| 2026-05-05 09:31 | 43.17731 | 24.81035 | 36072 ft | 463 kts | 293° |
| 2026-05-05 09:31 | 43.20117 | 24.72843 | 36074 ft | 463 kts | 293° |
| 2026-05-05 09:32 | 43.22508 | 24.64659 | 36077 ft | 463 kts | 293° |
| 2026-05-05 09:32 | 43.24904 | 24.56453 | 36085 ft | 463 kts | 293° |
| 2026-05-05 09:33 | 43.27294 | 24.48236 | 36081 ft | 463 kts | 293° |
| 2026-05-05 09:33 | 43.29677 | 24.40024 | 36086 ft | 464 kts | 293° |
| 2026-05-05 09:34 | 43.32053 | 24.31796 | 36085 ft | 464 kts | 293° |
| 2026-05-05 09:34 | 43.34428 | 24.23554 | 36084 ft | 463 kts | 293° |
| 2026-05-05 09:35 | 43.36789 | 24.15328 | 36082 ft | 463 kts | 293° |
| 2026-05-05 09:35 | 43.40326 | 24.02971 | 36084 ft | 463 kts | 293° |
| 2026-05-05 09:36 | 43.42845 | 23.94826 | 36085 ft | 462 kts | 295° |
| 2026-05-05 09:36 | 43.45476 | 23.86751 | 36083 ft | 463 kts | 295° |
| 2026-05-05 09:37 | 43.48085 | 23.78663 | 36084 ft | 462 kts | 295° |
| 2026-05-05 09:37 | 43.50667 | 23.70554 | 36079 ft | 462 kts | 295° |
| 2026-05-05 09:38 | 43.53229 | 23.62449 | 36084 ft | 462 kts | 295° |
| 2026-05-05 09:38 | 43.55784 | 23.54326 | 36081 ft | 462 kts | 295° |
| 2026-05-05 09:39 | 43.58332 | 23.46205 | 36083 ft | 461 kts | 295° |
| 2026-05-05 09:39 | 43.60874 | 23.38086 | 36082 ft | 461 kts | 295° |
| 2026-05-05 09:40 | 43.63408 | 23.29972 | 36087 ft | 460 kts | 295° |
| 2026-05-05 09:40 | 43.65933 | 23.21853 | 36091 ft | 460 kts | 294° |
| 2026-05-05 09:41 | 43.68454 | 23.13722 | 36092 ft | 460 kts | 294° |
| 2026-05-05 09:41 | 43.70950 | 23.05649 | 36091 ft | 460 kts | 294° |
| 2026-05-05 09:42 | 43.73456 | 22.97517 | 36090 ft | 459 kts | 294° |
| 2026-05-05 09:42 | 43.75952 | 22.89394 | 36094 ft | 459 kts | 294° |
| 2026-05-05 09:43 | 43.78442 | 22.81261 | 36091 ft | 459 kts | 294° |
| 2026-05-05 09:43 | 43.80927 | 22.73124 | 36091 ft | 459 kts | 294° |
| 2026-05-05 09:44 | 43.83402 | 22.64996 | 36092 ft | 458 kts | 294° |
| 2026-05-05 09:44 | 43.85867 | 22.56869 | 36091 ft | 457 kts | 294° |
| 2026-05-05 09:45 | 43.88326 | 22.48741 | 36092 ft | 457 kts | 294° |
| 2026-05-05 09:45 | 43.90981 | 22.40752 | 36077 ft | 456 kts | 301° |
| 2026-05-05 09:46 | 43.94586 | 22.33543 | 36080 ft | 454 kts | 311° |
| 2026-05-05 09:46 | 43.98710 | 22.26893 | 36078 ft | 454 kts | 311° |
| 2026-05-05 09:47 | 44.02851 | 22.20274 | 36079 ft | 454 kts | 311° |
| 2026-05-05 09:47 | 44.05000 | 22.16812 | 36073 ft | 454 kts | 311° |
| 2026-05-05 09:48 | 44.06415 | 22.14521 | 36078 ft | 454 kts | 311° |
| 2026-05-05 09:48 | 44.10519 | 22.07845 | 36077 ft | 454 kts | 311° |
| 2026-05-05 09:49 | 44.14611 | 22.01158 | 36069 ft | 454 kts | 311° |
| 2026-05-05 09:49 | 44.18700 | 21.94459 | 36077 ft | 454 kts | 311° |
| 2026-05-05 09:50 | 44.22786 | 21.87750 | 36078 ft | 454 kts | 311° |
| 2026-05-05 09:50 | 44.26872 | 21.81032 | 36070 ft | 455 kts | 311° |
| 2026-05-05 09:51 | 44.30959 | 21.74291 | 36067 ft | 455 kts | 311° |
| 2026-05-05 09:51 | 44.35041 | 21.67544 | 36069 ft | 455 kts | 310° |
| 2026-05-05 09:52 | 44.39121 | 21.60779 | 36066 ft | 455 kts | 310° |
| 2026-05-05 09:52 | 44.43200 | 21.54002 | 36058 ft | 455 kts | 310° |
| 2026-05-05 09:53 | 44.47272 | 21.47225 | 36068 ft | 455 kts | 310° |
| 2026-05-05 09:53 | 44.51349 | 21.40424 | 36068 ft | 456 kts | 310° |
| 2026-05-05 09:54 | 44.55422 | 21.33613 | 36059 ft | 456 kts | 310° |
| 2026-05-05 09:54 | 44.59492 | 21.26785 | 36050 ft | 456 kts | 310° |
| 2026-05-05 09:55 | 44.63559 | 21.19948 | 36057 ft | 456 kts | 310° |
| 2026-05-05 09:55 | 44.67619 | 21.13107 | 36055 ft | 455 kts | 310° |
| 2026-05-05 09:56 | 44.71665 | 21.06274 | 36056 ft | 455 kts | 310° |
| 2026-05-05 09:56 | 44.75686 | 20.99470 | 36052 ft | 455 kts | 310° |
| 2026-05-05 09:57 | 44.79724 | 20.92614 | 36057 ft | 455 kts | 310° |
| 2026-05-05 09:57 | 44.83764 | 20.85743 | 36052 ft | 456 kts | 310° |
| 2026-05-05 09:58 | 44.87804 | 20.78852 | 36048 ft | 456 kts | 310° |
| 2026-05-05 09:58 | 44.91839 | 20.71954 | 36035 ft | 456 kts | 310° |
| 2026-05-05 09:59 | 44.95875 | 20.65039 | 36036 ft | 456 kts | 310° |
| 2026-05-05 09:59 | 44.99902 | 20.58117 | 36040 ft | 456 kts | 310° |
| 2026-05-05 10:00 | 45.03932 | 20.51179 | 36051 ft | 456 kts | 309° |
| 2026-05-05 10:00 | 45.07952 | 20.44242 | 36034 ft | 456 kts | 309° |
| 2026-05-05 10:01 | 45.11963 | 20.37303 | 36035 ft | 456 kts | 309° |
| 2026-05-05 10:01 | 45.15975 | 20.30338 | 36054 ft | 457 kts | 309° |
| 2026-05-05 10:02 | 45.19990 | 20.23354 | 36054 ft | 457 kts | 309° |
| 2026-05-05 10:02 | 45.24006 | 20.16356 | 36050 ft | 458 kts | 309° |
| 2026-05-05 10:03 | 45.28031 | 20.09324 | 36055 ft | 458 kts | 309° |
| 2026-05-05 10:03 | 45.32047 | 20.02288 | 36055 ft | 459 kts | 309° |
| 2026-05-05 10:04 | 45.36060 | 19.95242 | 36050 ft | 458 kts | 309° |
| 2026-05-05 10:04 | 45.40065 | 19.88190 | 36051 ft | 458 kts | 309° |
| 2026-05-05 10:05 | 45.44069 | 19.81124 | 36032 ft | 458 kts | 309° |
| 2026-05-05 10:05 | 45.48060 | 19.74054 | 36035 ft | 458 kts | 309° |
| 2026-05-05 10:06 | 45.52048 | 19.66976 | 36030 ft | 458 kts | 309° |
| 2026-05-05 10:06 | 45.56033 | 19.59884 | 36025 ft | 459 kts | 309° |
| 2026-05-05 10:07 | 45.59349 | 19.53977 | 36028 ft | 459 kts | 309° |
| 2026-05-05 10:07 | 45.61785 | 19.49630 | 36030 ft | 458 kts | 308° |
| 2026-05-05 10:08 | 45.62854 | 19.47718 | 36028 ft | 458 kts | 308° |
| 2026-05-05 10:08 | 45.66831 | 19.40593 | 36028 ft | 458 kts | 308° |
| 2026-05-05 10:09 | 45.70794 | 19.33475 | 36029 ft | 458 kts | 308° |
| 2026-05-05 10:09 | 45.74759 | 19.26336 | 36030 ft | 458 kts | 308° |
| 2026-05-05 10:10 | 45.78719 | 19.19193 | 36032 ft | 458 kts | 308° |
| 2026-05-05 10:10 | 45.82675 | 19.12033 | 36028 ft | 458 kts | 308° |
| 2026-05-05 10:11 | 45.86626 | 19.04869 | 36026 ft | 458 kts | 308° |
| 2026-05-05 10:11 | 45.90577 | 18.97688 | 36028 ft | 458 kts | 308° |
| 2026-05-05 10:12 | 45.94327 | 18.90379 | 36028 ft | 458 kts | 301° |
| 2026-05-05 10:12 | 45.97567 | 18.82514 | 36022 ft | 458 kts | 300° |
| 2026-05-05 10:13 | 46.00777 | 18.74597 | 36017 ft | 458 kts | 300° |
| 2026-05-05 10:13 | 46.04008 | 18.66672 | 36017 ft | 459 kts | 300° |
| 2026-05-05 10:14 | 46.07249 | 18.58747 | 36020 ft | 459 kts | 300° |
| 2026-05-05 10:14 | 46.10489 | 18.50819 | 36019 ft | 459 kts | 300° |
| 2026-05-05 10:15 | 46.13724 | 18.42876 | 36018 ft | 460 kts | 300° |
| 2026-05-05 10:15 | 46.16955 | 18.34917 | 36019 ft | 460 kts | 300° |
| 2026-05-05 10:16 | 46.20179 | 18.26946 | 36017 ft | 460 kts | 300° |
| 2026-05-05 10:16 | 46.23400 | 18.18969 | 36018 ft | 460 kts | 300° |
| 2026-05-05 10:17 | 46.26615 | 18.10988 | 36017 ft | 459 kts | 300° |
| 2026-05-05 10:17 | 46.29818 | 18.03004 | 36014 ft | 459 kts | 300° |
| 2026-05-05 10:18 | 46.33014 | 17.95013 | 36010 ft | 459 kts | 300° |
| 2026-05-05 10:18 | 46.36204 | 17.87022 | 36003 ft | 459 kts | 299° |
| 2026-05-05 10:19 | 46.39389 | 17.79013 | 35996 ft | 459 kts | 299° |
| 2026-05-05 10:19 | 46.42567 | 17.70999 | 35996 ft | 459 kts | 299° |
| 2026-05-05 10:20 | 46.45743 | 17.62966 | 35979 ft | 459 kts | 299° |
| 2026-05-05 10:20 | 46.48914 | 17.54925 | 35986 ft | 459 kts | 299° |
| 2026-05-05 10:21 | 46.52076 | 17.46880 | 35971 ft | 459 kts | 299° |
| 2026-05-05 10:21 | 46.55237 | 17.38816 | 35976 ft | 459 kts | 299° |
| 2026-05-05 10:22 | 46.58391 | 17.30745 | 35968 ft | 459 kts | 299° |
| 2026-05-05 10:22 | 46.61542 | 17.22664 | 35970 ft | 460 kts | 299° |
| 2026-05-05 10:23 | 46.64688 | 17.14566 | 35965 ft | 459 kts | 298° |
| 2026-05-05 10:23 | 46.67823 | 17.06469 | 35960 ft | 459 kts | 298° |
| 2026-05-05 10:24 | 46.70953 | 16.98362 | 35964 ft | 460 kts | 298° |
| 2026-05-05 10:24 | 46.74086 | 16.90230 | 35964 ft | 460 kts | 298° |
| 2026-05-05 10:25 | 46.77213 | 16.82088 | 35965 ft | 460 kts | 298° |
| 2026-05-05 10:25 | 46.80334 | 16.73931 | 35964 ft | 461 kts | 298° |
| 2026-05-05 10:26 | 46.83455 | 16.65752 | 35955 ft | 461 kts | 298° |
| 2026-05-05 10:26 | 46.86565 | 16.57576 | 35952 ft | 461 kts | 298° |
| 2026-05-05 10:27 | 46.89670 | 16.49382 | 35952 ft | 461 kts | 298° |
| 2026-05-05 10:27 | 46.91328 | 16.45003 | 35948 ft | 461 kts | 298° |
| 2026-05-05 10:28 | 46.92388 | 16.42200 | 35945 ft | 461 kts | 298° |
| 2026-05-05 10:28 | 46.95478 | 16.34006 | 35945 ft | 460 kts | 298° |
| 2026-05-05 10:29 | 46.98570 | 16.25783 | 35937 ft | 461 kts | 298° |
| 2026-05-05 10:29 | 47.01610 | 16.17523 | 35926 ft | 461 kts | 296° |
| 2026-05-05 10:30 | 47.04527 | 16.09157 | 35934 ft | 461 kts | 296° |
| 2026-05-05 10:30 | 47.07429 | 16.00767 | 35909 ft | 461 kts | 296° |
| 2026-05-05 10:31 | 47.10318 | 15.92431 | 35899 ft | 461 kts | 296° |
| 2026-05-05 10:31 | 47.13246 | 15.83988 | 35894 ft | 461 kts | 296° |
| 2026-05-05 10:32 | 47.16129 | 15.75657 | 35886 ft | 460 kts | 296° |
| 2026-05-05 10:32 | 47.19046 | 15.67197 | 35882 ft | 461 kts | 296° |
| 2026-05-05 10:33 | 47.21915 | 15.58859 | 35890 ft | 460 kts | 296° |
| 2026-05-05 10:33 | 47.24795 | 15.50460 | 35881 ft | 460 kts | 296° |
| 2026-05-05 10:34 | 47.27665 | 15.42053 | 35894 ft | 459 kts | 296° |
| 2026-05-05 10:34 | 47.30530 | 15.33638 | 35887 ft | 460 kts | 296° |
| 2026-05-05 10:35 | 47.33389 | 15.25204 | 35896 ft | 461 kts | 295° |
| 2026-05-05 10:35 | 47.36256 | 15.16727 | 35899 ft | 461 kts | 295° |
| 2026-05-05 10:36 | 47.39110 | 15.08266 | 35902 ft | 461 kts | 295° |
| 2026-05-05 10:36 | 47.41954 | 14.99800 | 35897 ft | 460 kts | 295° |
| 2026-05-05 10:37 | 47.44796 | 14.91320 | 35895 ft | 460 kts | 295° |
| 2026-05-05 10:37 | 47.47622 | 14.82858 | 35892 ft | 454 kts | 295° |
| 2026-05-05 10:38 | 47.48998 | 14.78731 | 35868 ft | 442 kts | 295° |
| 2026-05-05 10:38 | 47.50336 | 14.74709 | 35849 ft | 430 kts | 295° |
| 2026-05-05 10:38 | 47.51642 | 14.70777 | 35580 ft | 423 kts | 295° |
| 2026-05-05 10:38 | 47.52934 | 14.66887 | 35213 ft | 418 kts | 295° |
| 2026-05-05 10:39 | 47.54203 | 14.63046 | 34803 ft | 415 kts | 295° |
| 2026-05-05 10:39 | 47.55465 | 14.59222 | 34375 ft | 412 kts | 295° |
| 2026-05-05 10:39 | 47.56715 | 14.55432 | 33954 ft | 410 kts | 295° |
| 2026-05-05 10:39 | 47.57957 | 14.51656 | 33508 ft | 407 kts | 295° |
| 2026-05-05 10:40 | 47.59193 | 14.47898 | 33077 ft | 404 kts | 295° |
| 2026-05-05 10:40 | 47.60421 | 14.44163 | 32652 ft | 401 kts | 295° |
| 2026-05-05 10:40 | 47.61638 | 14.40454 | 32227 ft | 399 kts | 295° |
| 2026-05-05 10:40 | 47.62851 | 14.36753 | 31795 ft | 397 kts | 295° |
| 2026-05-05 10:41 | 47.64050 | 14.33092 | 31364 ft | 395 kts | 295° |
| 2026-05-05 10:41 | 47.65245 | 14.29437 | 30930 ft | 392 kts | 295° |
| 2026-05-05 10:41 | 47.66428 | 14.25812 | 30517 ft | 390 kts | 295° |
| 2026-05-05 10:41 | 47.67605 | 14.22199 | 30091 ft | 387 kts | 295° |
| 2026-05-05 10:42 | 47.69935 | 14.15038 | 29245 ft | 384 kts | 295° |
| 2026-05-05 10:42 | 47.71088 | 14.11480 | 28819 ft | 382 kts | 295° |
| 2026-05-05 10:42 | 47.72235 | 14.07937 | 28395 ft | 380 kts | 295° |
| 2026-05-05 10:43 | 47.73375 | 14.04410 | 27978 ft | 378 kts | 295° |
| 2026-05-05 10:43 | 47.74510 | 14.00896 | 27561 ft | 376 kts | 295° |
| 2026-05-05 10:43 | 47.75635 | 13.97405 | 27145 ft | 375 kts | 295° |
| 2026-05-05 10:43 | 47.76762 | 13.93910 | 26730 ft | 373 kts | 295° |
| 2026-05-05 10:44 | 47.77877 | 13.90444 | 26319 ft | 371 kts | 295° |
| 2026-05-05 10:44 | 47.78988 | 13.86987 | 25926 ft | 369 kts | 295° |
| 2026-05-05 10:44 | 47.80092 | 13.83551 | 25523 ft | 367 kts | 295° |
| 2026-05-05 10:44 | 47.81186 | 13.80132 | 25114 ft | 366 kts | 295° |
| 2026-05-05 10:45 | 47.82277 | 13.76715 | 24713 ft | 365 kts | 295° |
| 2026-05-05 10:45 | 47.83362 | 13.73314 | 24315 ft | 363 kts | 295° |
| 2026-05-05 10:45 | 47.84440 | 13.69936 | 23920 ft | 361 kts | 295° |
| 2026-05-05 10:45 | 47.85515 | 13.66566 | 23522 ft | 359 kts | 295° |
| 2026-05-05 10:46 | 47.86584 | 13.63212 | 23133 ft | 358 kts | 295° |
| 2026-05-05 10:46 | 47.87648 | 13.59866 | 22734 ft | 356 kts | 295° |
| 2026-05-05 10:46 | 47.88706 | 13.56535 | 22353 ft | 355 kts | 295° |
| 2026-05-05 10:46 | 47.89759 | 13.53214 | 21950 ft | 354 kts | 294° |
| 2026-05-05 10:47 | 47.90806 | 13.49905 | 21568 ft | 353 kts | 294° |
| 2026-05-05 10:47 | 47.91836 | 13.46643 | 21186 ft | 351 kts | 294° |
| 2026-05-05 10:47 | 47.92807 | 13.43571 | 20808 ft | 351 kts | 294° |
| 2026-05-05 10:48 | 47.93626 | 13.40975 | 20507 ft | 350 kts | 294° |
| 2026-05-05 10:48 | 47.94661 | 13.37692 | 20105 ft | 349 kts | 294° |
| 2026-05-05 10:48 | 47.95689 | 13.34421 | 19729 ft | 348 kts | 294° |
| 2026-05-05 10:49 | 47.96715 | 13.31153 | 19326 ft | 348 kts | 294° |
| 2026-05-05 10:49 | 47.97738 | 13.27889 | 18949 ft | 347 kts | 294° |
| 2026-05-05 10:49 | 47.98763 | 13.24624 | 18548 ft | 347 kts | 294° |
| 2026-05-05 10:49 | 47.99778 | 13.21380 | 18167 ft | 346 kts | 294° |
| 2026-05-05 10:50 | 48.00798 | 13.18120 | 17778 ft | 345 kts | 294° |
| 2026-05-05 10:50 | 48.01813 | 13.14870 | 17392 ft | 345 kts | 294° |
| 2026-05-05 10:50 | 48.02826 | 13.11617 | 16982 ft | 345 kts | 294° |
| 2026-05-05 10:50 | 48.03836 | 13.08372 | 16594 ft | 344 kts | 294° |
| 2026-05-05 10:51 | 48.04843 | 13.05136 | 16211 ft | 343 kts | 294° |
| 2026-05-05 10:51 | 48.05848 | 13.01905 | 15819 ft | 343 kts | 294° |
| 2026-05-05 10:51 | 48.06508 | 12.99775 | 15568 ft | 342 kts | 294° |
| 2026-05-05 10:51 | 48.07521 | 12.96504 | 15164 ft | 338 kts | 294° |
| 2026-05-05 10:52 | 48.08482 | 12.93404 | 14785 ft | 327 kts | 293° |
| 2026-05-05 10:52 | 48.09256 | 12.90236 | 14400 ft | 315 kts | 281° |
| 2026-05-05 10:52 | 48.09586 | 12.87058 | 14057 ft | 304 kts | 276° |
| 2026-05-05 10:52 | 48.09857 | 12.84000 | 13769 ft | 296 kts | 276° |
| 2026-05-05 10:53 | 48.10132 | 12.80939 | 13549 ft | 293 kts | 276° |
| 2026-05-05 10:53 | 48.10407 | 12.77903 | 13247 ft | 297 kts | 277° |
| 2026-05-05 10:53 | 48.10691 | 12.74786 | 12924 ft | 307 kts | 277° |
| 2026-05-05 10:53 | 48.10986 | 12.71595 | 12561 ft | 312 kts | 277° |
| 2026-05-05 10:54 | 48.11286 | 12.68371 | 12204 ft | 311 kts | 277° |
| 2026-05-05 10:54 | 48.11582 | 12.65190 | 11847 ft | 308 kts | 277° |
| 2026-05-05 10:54 | 48.11875 | 12.62034 | 11497 ft | 304 kts | 277° |
| 2026-05-05 10:54 | 48.12168 | 12.58910 | 11137 ft | 301 kts | 277° |
| 2026-05-05 10:55 | 48.12457 | 12.55812 | 10790 ft | 299 kts | 277° |
| 2026-05-05 10:55 | 48.12740 | 12.52749 | 10457 ft | 295 kts | 277° |
| 2026-05-05 10:55 | 48.13014 | 12.49774 | 10176 ft | 289 kts | 277° |
| 2026-05-05 10:55 | 48.13285 | 12.46826 | 10104 ft | 276 kts | 277° |
| 2026-05-05 10:56 | 48.13538 | 12.44077 | 9977 ft | 265 kts | 277° |
| 2026-05-05 10:56 | 48.13788 | 12.41342 | 9710 ft | 265 kts | 277° |
| 2026-05-05 10:56 | 48.14037 | 12.38597 | 9544 ft | 258 kts | 277° |
| 2026-05-05 10:56 | 48.14297 | 12.35984 | 9306 ft | 249 kts | 284° |
| 2026-05-05 10:57 | 48.15115 | 12.33747 | 8850 ft | 248 kts | 315° |
| 2026-05-05 10:57 | 48.16417 | 12.32097 | 8444 ft | 246 kts | 320° |
| 2026-05-05 10:57 | 48.17747 | 12.30491 | 8081 ft | 244 kts | 320° |
| 2026-05-05 10:57 | 48.19061 | 12.28897 | 7726 ft | 242 kts | 320° |
| 2026-05-05 10:58 | 48.20368 | 12.27315 | 7379 ft | 240 kts | 320° |
| 2026-05-05 10:58 | 48.21651 | 12.25761 | 7182 ft | 231 kts | 320° |
| 2026-05-05 10:58 | 48.22889 | 12.24254 | 7201 ft | 232 kts | 320° |
| 2026-05-05 10:58 | 48.24175 | 12.22689 | 7042 ft | 245 kts | 320° |
| 2026-05-05 10:59 | 48.25505 | 12.21065 | 6761 ft | 248 kts | 320° |
| 2026-05-05 10:59 | 48.26832 | 12.19447 | 6457 ft | 243 kts | 320° |
| 2026-05-05 10:59 | 48.28127 | 12.17861 | 6173 ft | 238 kts | 320° |
| 2026-05-05 10:59 | 48.29400 | 12.16302 | 5907 ft | 232 kts | 320° |
| 2026-05-05 11:00 | 48.30630 | 12.14798 | 5764 ft | 225 kts | 320° |
| 2026-05-05 11:00 | 48.31850 | 12.13309 | 5668 ft | 228 kts | 320° |
| 2026-05-05 11:00 | 48.33049 | 12.11838 | 5573 ft | 219 kts | 320° |
| 2026-05-05 11:00 | 48.34193 | 12.10435 | 5442 ft | 202 kts | 320° |
| 2026-05-05 11:01 | 48.35238 | 12.09152 | 5215 ft | 192 kts | 320° |
| 2026-05-05 11:01 | 48.36030 | 12.07651 | 4945 ft | 182 kts | 285° |
| 2026-05-05 11:01 | 48.36117 | 12.05740 | 4781 ft | 188 kts | 269° |
| 2026-05-05 11:01 | 48.36128 | 12.03759 | 4501 ft | 189 kts | 269° |
| 2026-05-05 11:02 | 48.36082 | 12.01790 | 4242 ft | 184 kts | 265° |
| 2026-05-05 11:02 | 48.35967 | 11.99922 | 4004 ft | 179 kts | 264° |
| 2026-05-05 11:02 | 48.35828 | 11.98053 | 3772 ft | 180 kts | 263° |
| 2026-05-05 11:02 | 48.35684 | 11.96194 | 3526 ft | 180 kts | 263° |
| 2026-05-05 11:03 | 48.35540 | 11.94326 | 3301 ft | 179 kts | 263° |
| 2026-05-05 11:03 | 48.35398 | 11.92455 | 3061 ft | 180 kts | 263° |
| 2026-05-05 11:03 | 48.35257 | 11.90606 | 2843 ft | 176 kts | 264° |
| 2026-05-05 11:03 | 48.35118 | 11.88779 | 2606 ft | 177 kts | 264° |
| 2026-05-05 11:04 | 48.34977 | 11.86960 | 2349 ft | 169 kts | 264° |
| 2026-05-05 11:04 | 48.34847 | 11.85268 | 2102 ft | 157 kts | 264° |
| 2026-05-05 11:04 | 48.34725 | 11.83743 | 1918 ft | 140 kts | 263° |
| 2026-05-05 11:04 | 48.34615 | 11.82310 | 1742 ft | 137 kts | 263° |
| 2026-05-05 11:05 | 48.34509 | 11.80856 | 1588 ft | 142 kts | 263° |
| 2026-05-05 11:05 | 48.34401 | 11.79411 | 1484 ft | 129 kts | 263° |
| 2026-05-05 11:05 | 48.34315 | 11.78297 | 1490 ft | 80 kts | 264° |
| 2026-05-05 11:05 | 48.34258 | 11.77559 | 1485 ft | 49 kts | 263° |
| 2026-05-05 11:06 | 48.34271 | 11.77218 | 1479 ft | 30 kts | 290° |
| 2026-05-05 11:06 | 48.34343 | 11.76968 | 1474 ft | 25 kts | 293° |
| 2026-05-05 11:06 | 48.34392 | 11.76794 | 1490 ft | 11 kts | 292° |
| 2026-05-05 11:06 | 48.34443 | 11.76713 | 1482 ft | 11 kts | 337° |
| 2026-05-05 11:07 | 48.34526 | 11.76692 | 1486 ft | 13 kts | 353° |
| 2026-05-05 11:07 | 48.34618 | 11.76675 | 1487 ft | 13 kts | 354° |
| 2026-05-05 11:07 | 48.34704 | 11.76661 | 1483 ft | 10 kts | 353° |
| 2026-05-05 11:07 | 48.34750 | 11.76721 | 1480 ft | 10 kts | 76° |
| 2026-05-05 11:08 | 48.34759 | 11.76825 | 1488 ft | 10 kts | 83° |
| 2026-05-05 11:08 | 48.34767 | 11.76931 | 1490 ft | 9 kts | 83° |
| 2026-05-05 11:08 | 48.34807 | 11.76962 | 1490 ft | 8 kts | 352° |
| 2026-05-05 11:08 | 48.34854 | 11.76953 | 1490 ft | 6 kts | 353° |
| 2026-05-05 11:09 | 48.34864 | 11.76952 | 1478 ft | 0 kts | 353° |